Time;durP1;ratioP1;P1;durP2;ratioP2;P2;SDS_P1;SDS_P2;PMS_P1;PMS_P2;Temp;Humidity;BMP_temperature;BMP_pressure;BME280_temperature;BME280_humidity;BME280_pressure;Samples;Min_cycle;Max_cycle;Signal;HPM_P1;HPM_P2
2022/04/06 00:01:55;;;;;;;5.25;2.30;;;;;;;2.71;81.92;99260.19;5014197;28;20128;-61
2022/04/06 00:04:31;;;;;;;7.40;2.45;;;;;;;2.75;81.99;99263.59;5000183;28;20054;-60
2022/04/06 00:07:07;;;;;;;6.97;2.55;;;;;;;2.80;82.42;99256.78;5013301;28;20466;-60
2022/04/06 00:09:39;;;;;;;7.43;2.60;;;;;;;2.82;82.12;99270.41;5013733;28;20053;-60
2022/04/06 00:12:16;;;;;;;7.95;2.95;;;;;;;2.83;82.71;99277.25;5013387;28;20058;-61
2022/04/06 00:14:43;;;;;;;5.35;2.88;;;;;;;2.84;82.62;99268.72;5000359;28;20691;-61
2022/04/06 00:17:13;;;;;;;7.07;2.90;;;;;;;2.78;82.79;99258.47;5008273;28;20050;-61
2022/04/06 00:19:42;;;;;;;4.45;1.85;;;;;;;2.75;82.06;99261.03;4997664;28;20050;-60
2022/04/06 00:22:24;;;;;;;11.75;3.00;;;;;;;2.78;82.14;99266.16;5002727;28;20050;-61
2022/04/06 00:24:54;;;;;;;4.13;1.92;;;;;;;2.80;81.82;99259.34;5010522;28;20568;-60
2022/04/06 00:27:22;;;;;;;6.57;2.13;;;;;;;2.78;81.61;99263.59;4995271;28;20068;-60
2022/04/06 00:29:52;;;;;;;6.57;2.58;;;;;;;2.76;81.13;99262.75;5013447;28;20093;-60
2022/04/06 00:32:22;;;;;;;4.75;1.42;;;;;;;2.77;81.20;99257.63;5013075;28;20376;-61
2022/04/06 00:37:38;;;;;;;5.65;1.63;;;;;;;2.71;80.82;99262.75;5013289;28;20104;-60
2022/04/06 00:40:10;;;;;;;4.15;1.70;;;;;;;2.74;80.77;99254.22;5013407;28;20092;-60
2022/04/06 00:42:39;;;;;;;7.63;2.05;;;;;;;2.74;80.84;99264.47;5004834;28;20068;-61
2022/04/06 00:45:11;;;;;;;3.35;1.55;;;;;;;2.74;80.51;99261.91;5002133;28;20042;-61
2022/04/06 00:50:30;;;;;;;3.63;1.90;;;;;;;2.67;80.33;99255.06;4993699;28;20050;-61
2022/04/06 00:53:03;;;;;;;3.63;1.85;;;;;;;2.64;80.50;99261.06;4993739;28;20062;-61
2022/04/06 00:55:40;;;;;;;7.38;1.67;;;;;;;2.61;80.68;99260.19;5011255;28;20042;-60
2022/04/06 00:58:11;;;;;;;4.88;2.00;;;;;;;2.57;80.30;99258.47;5012669;28;20071;-61
2022/04/06 01:00:38;;;;;;;3.95;1.92;;;;;;;2.57;80.61;99263.56;5012958;28;20088;-59
2022/04/06 01:03:06;;;;;;;5.75;1.90;;;;;;;2.55;80.50;99261.03;5007566;28;20467;-62
2022/04/06 01:05:36;;;;;;;4.72;1.88;;;;;;;2.53;80.37;99273.81;5006801;28;20061;-61
2022/04/06 01:08:11;;;;;;;5.95;2.05;;;;;;;2.51;80.65;99274.66;5013187;28;20060;-61
2022/04/06 01:10:40;;;;;;;4.40;2.35;;;;;;;2.47;80.78;99268.69;5016567;28;20100;-61
2022/04/06 01:13:16;;;;;;;5.50;2.17;;;;;;;2.46;81.00;99272.09;5016023;28;20053;-61
2022/04/06 01:15:44;;;;;;;3.88;2.30;;;;;;;2.46;81.04;99277.22;4983050;28;20047;-61
2022/04/06 01:18:14;;;;;;;8.15;2.75;;;;;;;2.44;81.46;99278.91;5013309;28;20056;-61
2022/04/06 01:20:44;;;;;;;8.73;3.25;;;;;;;2.42;81.34;99275.50;5002712;28;20426;-61
2022/04/06 01:23:17;;;;;;;9.52;2.92;;;;;;;2.40;81.30;99287.44;5006127;28;20464;-61
2022/04/06 01:25:53;;;;;;;6.28;2.58;;;;;;;2.38;81.23;99289.16;5016432;28;20053;-60
2022/04/06 01:28:24;;;;;;;5.35;2.60;;;;;;;2.36;81.86;99295.97;5016975;28;20054;-59
2022/04/06 01:30:51;;;;;;;9.80;2.90;;;;;;;2.37;81.41;99302.78;5006379;28;20062;-60
2022/04/06 01:33:18;;;;;;;5.30;2.75;;;;;;;2.37;81.65;99295.13;5008897;28;20115;-60
2022/04/06 01:35:49;;;;;;;4.28;2.40;;;;;;;2.39;81.83;99295.97;5003321;28;20051;-61
2022/04/06 01:38:25;;;;;;;5.07;2.72;;;;;;;2.40;82.04;99292.56;5008359;28;20064;-60
2022/04/06 01:40:55;;;;;;;7.30;2.50;;;;;;;2.42;81.91;99290.00;5016539;28;20041;-60
2022/04/06 01:43:30;;;;;;;6.18;2.60;;;;;;;2.45;82.04;99308.75;5016157;28;20125;-60
2022/04/06 01:52:12;;;;;;;4.55;2.55;;;;;;;2.49;81.99;99300.25;5016486;28;20457;-59
2022/04/06 01:54:32;;;;;;;5.03;2.60;;;;;;;2.49;81.88;99302.78;4996810;28;20061;-60
2022/04/06 01:56:59;;;;;;;8.02;3.13;;;;;;;2.48;81.85;99301.09;5004603;28;20053;-60
2022/04/06 01:59:35;;;;;;;7.18;3.15;;;;;;;2.46;81.55;99307.91;5016539;28;20072;-60
2022/04/06 02:02:11;;;;;;;;;;;;;;;2.40;82.08;99301.94;5016726;28;20058;-61
2022/04/06 02:04:47;;;;;;;6.47;2.70;;;;;;;2.38;82.04;99307.03;4997908;28;19976;-61
2022/04/06 02:07:23;;;;;;;6.93;2.88;;;;;;;2.36;82.12;99306.19;4996105;28;20054;-60
2022/04/06 02:09:54;;;;;;;;;;;;;;;2.35;82.56;99309.59;4997067;28;20129;-61
2022/04/06 02:12:24;;;;;;;7.78;2.60;;;;;;;2.30;82.29;99311.28;4996073;28;19925;-61
2022/04/06 02:14:53;;;;;;;6.32;2.97;;;;;;;2.28;82.39;99313.00;4996154;28;20472;-61
2022/04/06 02:17:24;;;;;;;11.75;3.28;;;;;;;2.27;82.38;99318.09;4996112;28;20419;-61
2022/04/06 02:19:54;;;;;;;7.78;2.80;;;;;;;2.25;82.48;99320.66;4996229;28;20046;-61
2022/04/06 02:22:24;;;;;;;6.35;3.40;;;;;;;2.22;82.55;99318.09;4996337;28;20089;-61
2022/04/06 02:25:02;;;;;;;8.27;3.50;;;;;;;2.21;82.68;99324.06;4996378;28;20046;-61
2022/04/06 02:27:30;;;;;;;12.30;3.22;;;;;;;2.16;83.02;99318.94;4996231;28;20660;-61
2022/04/06 02:30:00;;;;;;;6.60;3.40;;;;;;;2.16;83.16;99318.09;4991239;28;20070;-61
2022/04/06 02:32:28;;;;;;;7.90;3.45;;;;;;;2.14;83.01;99314.66;4995765;28;20050;-59
2022/04/06 02:34:56;;;;;;;7.95;2.97;;;;;;;2.13;83.04;99315.53;4995685;28;20062;-61
2022/04/06 02:37:26;;;;;;;6.90;2.95;;;;;;;2.11;83.07;99319.78;4978716;28;20359;-61
2022/04/06 02:39:56;;;;;;;7.78;3.13;;;;;;;2.12;83.05;99316.38;4995866;28;20058;-61
2022/04/06 02:42:23;;;;;;;9.52;2.78;;;;;;;2.11;83.22;99314.66;4994235;28;20062;-60
2022/04/06 02:44:53;;;;;;;6.03;3.08;;;;;;;2.11;82.98;99322.34;4994784;28;20049;-61
2022/04/06 02:47:23;;;;;;;9.05;3.50;;;;;;;2.13;82.83;99323.19;4994430;28;20058;-61
2022/04/06 02:50:00;;;;;;;6.25;3.35;;;;;;;2.13;82.46;99325.75;4998720;28;20053;-61
2022/04/06 02:52:27;;;;;;;14.93;3.95;;;;;;;2.10;83.01;99324.03;5015687;28;20056;-60
2022/04/06 02:54:57;;;;;;;10.32;3.78;;;;;;;2.08;83.05;99320.63;5011933;28;20056;-60
2022/04/06 02:57:27;;;;;;;14.15;4.63;;;;;;;2.05;83.48;99325.69;4981899;28;20648;-61
2022/04/06 03:02:35;;;;;;;10.73;4.32;;;;;;;1.98;83.49;99323.13;4995526;28;20058;-60
2022/04/06 03:05:05;;;;;;;10.65;4.05;;;;;;;1.95;83.62;99323.09;4995376;28;20395;-60
2022/04/06 03:07:36;;;;;;;9.00;4.00;;;;;;;1.93;84.02;99335.03;4995678;28;20054;-60
2022/04/06 03:10:11;;;;;;;10.57;5.75;;;;;;;1.92;84.22;99329.06;4995462;28;20058;-60
2022/04/06 03:12:41;;;;;;;11.18;4.60;;;;;;;1.92;83.90;99328.19;4994853;28;20062;-60
2022/04/06 03:15:10;;;;;;;9.70;4.22;;;;;;;1.93;84.19;99324.78;4994997;28;20046;-60
2022/04/06 03:17:42;;;;;;;10.18;3.65;;;;;;;1.94;83.93;99326.50;4995140;28;20046;-60
2022/04/06 03:20:13;;;;;;;7.93;3.67;;;;;;;1.93;84.20;99335.88;4995369;28;20086;-60
2022/04/06 03:22:40;;;;;;;8.27;3.63;;;;;;;1.96;84.17;99340.13;4994962;28;20050;-60
2022/04/06 03:25:14;;;;;;;10.52;4.18;;;;;;;1.95;84.35;99344.41;4995262;28;20065;-60
2022/04/06 03:27:49;;;;;;;10.82;4.90;;;;;;;1.98;84.64;99341.00;4995172;28;20046;-60
2022/04/06 03:30:16;;;;;;;10.55;3.90;;;;;;;2.01;84.18;99348.69;4995107;28;20141;-60
2022/04/06 03:32:51;;;;;;;8.07;3.90;;;;;;;2.01;84.48;99341.00;4993690;28;20058;-60
2022/04/06 03:35:20;;;;;;;11.57;4.18;;;;;;;2.03;84.36;99346.97;4994482;28;20444;-60
2022/04/06 03:37:48;;;;;;;10.18;3.72;;;;;;;2.02;84.33;99352.94;4994996;28;20050;-61
2022/04/06 03:40:19;;;;;;;7.85;3.80;;;;;;;2.01;84.76;99343.56;4994809;28;20456;-61
2022/04/06 03:42:46;;;;;;;10.20;3.83;;;;;;;1.99;84.79;99345.25;4994793;28;20081;-60
2022/04/06 03:45:23;;;;;;;11.77;5.22;;;;;;;1.99;84.66;99350.38;4994527;28;20395;-60
2022/04/06 03:47:50;;;;;;;8.30;3.67;;;;;;;1.98;85.29;99344.41;4975375;28;20047;-60
2022/04/06 03:50:20;;;;;;;10.05;4.18;;;;;;;1.99;85.20;99355.50;4994859;28;20058;-60
2022/04/06 03:52:46;;;;;;;11.25;4.00;;;;;;;1.97;85.21;99358.03;4994355;28;20387;-60
2022/04/06 03:55:18;;;;;;;11.45;4.93;;;;;;;1.97;85.18;99354.63;4994332;28;20047;-59
2022/04/06 03:57:44;;;;;;;10.10;4.03;;;;;;;1.97;85.04;99357.19;4993972;28;20057;-60
2022/04/06 04:00:12;;;;;;;11.48;4.43;;;;;;;1.94;85.08;99354.63;4994482;28;20058;-60
2022/04/06 04:02:41;;;;;;;9.23;4.65;;;;;;;1.92;85.26;99359.72;4994332;28;20161;-60
2022/04/06 04:05:12;;;;;;;13.55;4.15;;;;;;;1.89;85.37;99359.72;4994931;28;20061;-60
2022/04/06 04:07:42;;;;;;;16.52;5.22;;;;;;;1.85;85.60;99363.09;4994833;28;20064;-60
2022/04/06 04:10:11;;;;;;;12.85;5.20;;;;;;;1.84;85.84;99367.34;4994627;28;20061;-60
2022/04/06 04:12:53;;;;;;;12.48;4.72;;;;;;;1.83;85.85;99370.75;4993639;28;20062;-61
2022/04/06 04:15:31;;;;;;;12.52;5.00;;;;;;;1.86;85.78;99375.88;4994289;28;20050;-60
2022/04/06 04:18:02;;;;;;;10.27;4.90;;;;;;;1.87;85.97;99371.63;4994500;28;20054;-59
2022/04/06 04:20:32;;;;;;;11.32;4.90;;;;;;;1.88;85.74;99374.19;4994202;28;20503;-60
2022/04/06 04:23:02;;;;;;;9.30;4.80;;;;;;;1.89;85.93;99373.34;4994495;28;20054;-59
2022/04/06 04:25:32;;;;;;;9.07;4.43;;;;;;;1.92;85.69;99374.19;4994259;28;20047;-60
2022/04/06 04:28:05;;;;;;;10.05;5.05;;;;;;;1.93;85.87;99376.75;4994287;28;20069;-60
2022/04/06 04:30:34;;;;;;;12.43;4.60;;;;;;;1.94;86.04;99373.34;4994389;28;20112;-60
2022/04/06 04:35:51;;;;;;;13.77;4.57;;;;;;;2.03;85.78;99370.00;4994127;28;20046;-59
2022/04/06 04:38:21;;;;;;;10.75;4.85;;;;;;;2.07;85.22;99370.00;4994234;28;20054;-60
2022/04/06 04:40:49;;;;;;;9.82;4.60;;;;;;;2.11;85.27;99370.91;4993122;28;20054;-59
2022/04/06 04:43:22;;;;;;;13.02;5.00;;;;;;;2.12;84.84;99362.38;4994029;28;20061;-60
2022/04/06 04:45:52;;;;;;;8.85;4.22;;;;;;;2.14;85.12;99365.78;4992678;28;20073;-60
2022/04/06 04:48:22;;;;;;;11.20;4.88;;;;;;;2.16;85.11;99369.22;4994070;28;20046;-60
2022/04/06 04:50:52;;;;;;;11.10;4.18;;;;;;;2.20;85.33;99366.66;4993795;28;20379;-61
2022/04/06 04:53:22;;;;;;;8.63;4.72;;;;;;;2.22;84.55;99367.53;4994143;28;20061;-60
2022/04/06 04:55:49;;;;;;;8.77;4.10;;;;;;;2.27;84.70;99365.00;4993831;28;20116;-60
2022/04/06 04:58:27;;;;;;;10.77;4.88;;;;;;;2.32;84.34;99365.84;4991279;28;20050;-60
2022/04/06 05:00:57;;;;;;;11.25;4.30;;;;;;;2.37;84.13;99371.84;4994109;28;20140;-60
2022/04/06 05:03:28;;;;;;;10.68;4.60;;;;;;;2.41;84.08;99371.00;4993934;28;20104;-60
2022/04/06 05:05:57;;;;;;;10.32;4.97;;;;;;;2.46;83.71;99369.28;4994047;28;20054;-61
2022/04/06 05:08:28;;;;;;;10.00;4.40;;;;;;;2.49;83.83;99369.31;4994019;28;20069;-61
2022/04/06 05:10:56;;;;;;;9.70;4.03;;;;;;;2.53;84.15;99372.72;4993243;28;20058;-61
2022/04/06 05:13:28;;;;;;;10.57;4.00;;;;;;;2.59;83.87;99374.44;4993677;28;20046;-60
2022/04/06 05:15:56;;;;;;;12.13;4.78;;;;;;;2.64;83.53;99373.63;4993331;28;20399;-61
2022/04/06 05:18:25;;;;;;;12.32;4.22;;;;;;;2.70;83.97;99377.91;4993701;28;20378;-60
2022/04/06 05:23:38;;;;;;;11.70;4.43;;;;;;;2.81;83.83;99377.06;4988579;28;20054;-61
2022/04/06 05:26:08;;;;;;;11.93;4.53;;;;;;;2.88;83.52;99383.03;4974466;28;20047;-59
2022/04/06 05:28:51;;;;;;;9.13;5.15;;;;;;;2.95;83.75;99389.84;4974014;28;20506;-60
2022/04/06 05:31:19;;;;;;;10.32;4.95;;;;;;;3.01;83.41;99389.88;4991778;28;20387;-61
2022/04/06 05:33:47;;;;;;;11.43;5.50;;;;;;;3.10;83.40;99391.56;4993445;28;20051;-61
2022/04/06 05:36:16;;;;;;;15.30;5.97;;;;;;;3.17;82.77;99385.63;4993540;28;20046;-60
2022/04/06 05:38:44;;;;;;;17.80;6.20;;;;;;;3.23;82.72;99389.88;4993554;28;20480;-61
2022/04/06 05:41:12;;;;;;;12.20;5.70;;;;;;;3.31;82.53;99383.06;4993515;28;20054;-61
2022/04/06 05:43:55;;;;;;;12.30;5.90;;;;;;;3.37;82.14;99388.16;4993356;28;20387;-60
2022/04/06 05:46:23;;;;;;;11.75;5.18;;;;;;;3.41;82.78;99385.59;4983271;28;20116;-61
2022/04/06 05:48:50;;;;;;;12.43;5.20;;;;;;;3.45;82.25;99389.00;4993745;28;20089;-60
2022/04/06 05:51:20;;;;;;;10.27;5.53;;;;;;;3.55;82.00;99383.00;5006611;28;20054;-60
2022/04/06 05:53:48;;;;;;;9.10;5.53;;;;;;;3.63;82.05;99388.97;5013290;28;20057;-61
2022/04/06 05:56:17;;;;;;;14.35;5.35;;;;;;;3.71;81.63;99394.97;5002968;28;20390;-61
2022/04/06 05:58:49;;;;;;;13.40;5.25;;;;;;;3.73;81.08;99398.38;4989475;28;20058;-60
2022/04/06 06:01:21;;;;;;;11.25;5.22;;;;;;;3.78;81.17;99396.66;4996022;28;20050;-61
2022/04/06 06:03:51;;;;;;;8.57;4.65;;;;;;;3.86;81.09;99403.47;4996208;28;20473;-60
2022/04/06 06:06:27;;;;;;;11.45;5.72;;;;;;;3.93;81.30;99405.16;4996232;28;20490;-58
2022/04/06 06:09:00;;;;;;;10.32;4.70;;;;;;;3.99;81.02;99400.03;4995998;28;20133;-61
2022/04/06 06:11:31;;;;;;;11.85;4.63;;;;;;;4.00;80.66;99399.16;4995983;28;20081;-61
2022/04/06 06:14:02;;;;;;;6.63;4.60;;;;;;;4.07;80.25;99408.53;4996023;28;20372;-59
2022/04/06 06:16:29;;;;;;;8.48;5.05;;;;;;;4.15;79.94;99406.78;5003204;28;20455;-62
2022/04/06 06:18:58;;;;;;;7.88;4.90;;;;;;;4.21;79.86;99411.06;4994694;28;20371;-59
2022/04/06 06:21:31;;;;;;;9.02;4.18;;;;;;;4.28;79.46;99411.03;4995603;28;20485;-58
2022/04/06 06:24:11;;;;;;;10.48;4.85;;;;;;;4.35;79.33;99405.03;4987242;28;20133;-56
2022/04/06 06:26:42;;;;;;;10.57;4.65;;;;;;;4.44;78.67;99406.69;4995871;28;20077;-59
2022/04/06 06:29:21;;;;;;;10.10;4.88;;;;;;;4.57;78.75;99400.63;4995862;28;20128;-58
2022/04/06 06:31:54;;;;;;;9.55;4.90;;;;;;;4.62;78.71;99400.59;4996068;28;20109;-59
2022/04/06 06:34:21;;;;;;;9.80;5.03;;;;;;;4.72;78.46;99399.72;4994027;28;20065;-60
2022/04/06 06:36:50;;;;;;;12.02;5.43;;;;;;;4.83;78.46;99397.94;4994131;28;20069;-59
2022/04/06 06:42:01;;;;;;;8.95;5.20;;;;;;;5.02;77.21;99403.78;4995498;28;20069;-56
2022/04/06 06:44:35;;;;;;;15.50;5.88;;;;;;;5.14;77.24;99397.69;4995561;28;20061;-56
2022/04/06 06:47:06;;;;;;;10.70;5.57;;;;;;;5.22;76.61;99401.09;4979384;28;20085;-57
2022/04/06 06:49:35;;;;;;;10.48;5.47;;;;;;;5.21;76.35;99396.81;4995713;28;20050;-58
2022/04/06 06:52:11;;;;;;;8.23;4.88;;;;;;;5.22;76.37;99401.09;4995404;28;20072;-59
2022/04/06 06:54:55;;;;;;;12.63;5.18;;;;;;;5.26;75.79;99387.34;4994751;28;20054;-61
2022/04/06 06:57:25;;;;;;;9.52;4.78;;;;;;;5.35;75.38;99407.84;4975526;28;20062;-61
2022/04/06 07:00:02;;;;;;;11.75;5.18;;;;;;;5.38;75.71;99397.53;4986282;28;20054;-64
2022/04/06 07:02:32;;;;;;;10.70;4.85;;;;;;;5.51;75.01;99398.25;4995048;28;20050;-61
2022/04/06 07:05:03;;;;;;;16.67;5.15;;;;;;;5.53;74.73;99396.53;4994856;28;20046;-60
2022/04/06 07:07:33;;;;;;;15.05;5.15;;;;;;;5.67;74.28;99400.66;4993958;28;20057;-60
2022/04/06 07:10:03;;;;;;;15.52;5.55;;;;;;;5.78;74.47;99397.16;4989501;28;20059;-63
2022/04/06 07:12:31;;;;;;;9.55;4.75;;;;;;;5.80;74.21;99395.44;4991445;28;20094;-63
2022/04/06 07:15:03;;;;;;;10.27;5.32;;;;;;;5.82;73.35;99391.97;4995435;28;20054;-64
2022/04/06 07:17:31;;;;;;;8.02;4.88;;;;;;;5.84;73.92;99386.81;4994742;28;20086;-59
2022/04/06 07:20:07;;;;;;;11.18;5.30;;;;;;;5.90;73.69;99386.78;4994607;28;20070;-61
2022/04/06 07:22:34;;;;;;;8.77;5.05;;;;;;;5.93;73.29;99386.75;4996728;28;20061;-56
2022/04/06 07:25:13;;;;;;;8.32;4.90;;;;;;;6.05;73.50;99386.59;4981179;28;20061;-59
2022/04/06 07:27:44;;;;;;;10.50;4.78;;;;;;;6.18;73.40;99377.88;4984685;28;20459;-59
2022/04/06 07:30:15;;;;;;;13.32;4.82;;;;;;;6.19;72.08;99373.56;4994881;28;20054;-60
2022/04/06 07:32:43;;;;;;;14.48;4.88;;;;;;;6.26;71.97;99370.06;4995209;28;20046;-57
2022/04/06 07:35:19;;;;;;;11.43;5.00;;;;;;;6.39;72.60;99361.31;4994506;28;20054;-59
2022/04/06 07:37:49;;;;;;;10.38;5.03;;;;;;;6.42;72.04;99360.44;4994713;28;20088;-59
2022/04/06 07:40:20;;;;;;;8.98;5.05;;;;;;;6.44;71.44;99368.97;4994551;28;20129;-63
2022/04/06 07:42:56;;;;;;;13.45;4.63;;;;;;;6.45;72.16;99378.41;4993192;28;20053;-62
2022/04/06 07:45:30;;;;;;;14.90;4.57;;;;;;;6.18;71.36;99383.00;4994456;28;20050;-63
2022/04/06 07:47:58;;;;;;;14.25;4.50;;;;;;;6.14;71.69;99380.50;4993985;28;20084;-61
2022/04/06 07:50:25;;;;;;;10.02;4.38;;;;;;;6.12;72.38;99377.94;4991526;28;20137;-60
2022/04/06 07:52:56;;;;;;;10.20;4.60;;;;;;;6.10;72.22;99379.69;4994146;28;20050;-63
2022/04/06 07:55:24;;;;;;;9.85;3.95;;;;;;;6.08;72.50;99373.69;4993917;28;20495;-61
2022/04/06 07:57:54;;;;;;;9.73;3.90;;;;;;;6.06;72.88;99374.59;4994401;28;20056;-63
2022/04/06 08:00:22;;;;;;;10.40;4.25;;;;;;;6.13;73.23;99378.78;4994615;28;20705;-60
2022/04/06 08:03:03;;;;;;;10.70;5.53;;;;;;;6.18;72.50;99377.88;4994779;28;20134;-57
2022/04/06 08:05:32;;;;;;;9.73;3.50;;;;;;;6.12;71.21;99372.78;4994267;28;20056;-58
2022/04/06 08:08:01;;;;;;;8.52;3.22;;;;;;;6.10;71.03;99377.09;4994106;28;20223;-58
2022/04/06 08:10:32;;;;;;;7.88;3.28;;;;;;;6.14;70.73;99375.34;4993940;28;20104;-61
2022/04/06 08:13:03;;;;;;;17.13;3.83;;;;;;;6.22;70.66;99369.25;4994081;28;20069;-60
2022/04/06 08:15:29;;;;;;;7.80;3.42;;;;;;;6.29;71.92;99378.59;4994429;28;20058;-60
2022/04/06 08:18:12;;;;;;;5.60;3.17;;;;;;;6.29;69.84;99365.75;4992814;28;20054;-62
2022/04/06 08:20:43;;;;;;;6.35;3.03;;;;;;;6.19;70.59;99371.84;4994134;28;20077;-59
2022/04/06 08:23:10;;;;;;;9.30;4.57;;;;;;;6.28;72.10;99374.34;4994268;28;20054;-58
2022/04/06 08:25:40;;;;;;;7.68;4.35;;;;;;;6.22;70.45;99378.69;4994487;28;20058;-57
2022/04/06 08:28:08;;;;;;;10.63;4.50;;;;;;;6.12;70.56;99383.09;4987603;28;20051;-58
2022/04/06 08:30:39;;;;;;;9.25;4.30;;;;;;;6.01;71.44;99377.22;4983184;28;20055;-63
2022/04/06 08:33:09;;;;;;;11.20;4.65;;;;;;;6.04;71.48;99384.91;4994358;28;20050;-63
2022/04/06 08:35:46;;;;;;;13.10;4.45;;;;;;;5.94;69.67;99393.59;4994019;28;20065;-59
2022/04/06 08:38:22;;;;;;;8.95;3.60;;;;;;;5.86;69.85;99387.66;4986305;28;20058;-58
2022/04/06 08:40:51;;;;;;;10.10;4.72;;;;;;;5.85;70.32;99391.94;4986756;28;20535;-59
2022/04/06 08:43:21;;;;;;;9.48;4.40;;;;;;;5.89;70.90;99391.06;4994080;28;20101;-58
2022/04/06 08:45:58;;;;;;;9.07;4.32;;;;;;;5.91;69.94;99396.19;4993581;28;20509;-59
2022/04/06 08:48:34;;;;;;;12.05;4.20;;;;;;;5.97;69.73;99384.13;4994021;28;20069;-58
2022/04/06 08:51:04;;;;;;;8.63;3.78;;;;;;;5.95;69.45;99385.00;4983298;28;20752;-58
2022/04/06 08:53:35;;;;;;;7.53;4.20;;;;;;;5.89;70.58;99380.78;4993931;28;20137;-56
2022/04/06 08:56:02;;;;;;;7.50;3.80;;;;;;;5.92;71.87;99379.91;4988189;28;20055;-56
2022/04/06 08:58:33;;;;;;;6.97;3.25;;;;;;;5.97;71.03;99378.13;4994519;28;20065;-57
2022/04/06 09:01:02;;;;;;;7.28;3.20;;;;;;;5.91;71.08;99373.06;4993306;28;20085;-57
2022/04/06 09:03:46;;;;;;;5.57;2.92;;;;;;;5.76;69.55;99376.63;4990199;28;20054;-57
2022/04/06 09:06:18;;;;;;;5.07;2.83;;;;;;;5.66;70.10;99374.97;4983083;28;20138;-57
2022/04/06 09:08:48;;;;;;;9.23;3.90;;;;;;;5.58;72.11;99375.06;4991790;28;20057;-56
2022/04/06 09:11:16;;;;;;;5.88;3.30;;;;;;;5.55;73.72;99364.81;4993197;28;20444;-57
2022/04/06 09:13:48;;;;;;;3.92;2.30;;;;;;;5.52;75.01;99381.97;4993446;28;20054;-53
2022/04/06 09:16:20;;;;;;;6.32;3.20;;;;;;;5.46;75.62;99382.88;4991907;28;20082;-56
2022/04/06 09:19:09;;;;;;;5.63;2.60;;;;;;;5.28;76.40;99370.22;4992197;28;20452;-59
2022/04/06 09:21:44;;;;;;;3.53;2.30;;;;;;;5.37;76.48;99376.13;4985615;28;20061;-58
2022/04/06 09:24:18;;;;;;;7.15;2.60;;;;;;;5.30;75.67;99358.19;4986962;28;20471;-59
2022/04/06 09:27:00;;;;;;;5.78;2.40;;;;;;;5.23;76.07;99351.41;4993668;28;20042;-58
2022/04/06 09:29:30;;;;;;;4.47;2.38;;;;;;;5.18;77.15;99358.28;4993587;28;20130;-57
2022/04/06 09:32:08;;;;;;;6.22;3.20;;;;;;;5.26;78.30;99348.81;4992719;28;20054;-55
2022/04/06 09:34:49;;;;;;;8.18;3.35;;;;;;;5.32;78.23;99346.19;4993766;28;20050;-63
2022/04/06 09:37:27;;;;;;;5.63;2.90;;;;;;;5.32;77.24;99335.91;4983220;28;20423;-61
2022/04/06 09:39:57;;;;;;;5.68;2.58;;;;;;;5.40;77.56;99334.13;4995651;28;20379;-63
2022/04/06 09:42:27;;;;;;;6.65;3.67;;;;;;;5.40;77.00;99328.97;4995845;28;20061;-62
2022/04/06 09:47:58;;;;;;;7.82;4.15;;;;;;;5.16;77.75;99339.47;4936924;29;20084;-63
2022/04/06 09:50:38;;;;;;;4.72;3.30;;;;;;;5.07;78.34;99325.84;4981416;28;20046;-64
2022/04/06 09:53:11;;;;;;;7.28;4.00;;;;;;;5.03;77.81;99334.44;4999489;28;20485;-64
2022/04/06 09:55:46;;;;;;;6.55;4.10;;;;;;;5.12;79.07;99327.50;4996727;28;20387;-52
2022/04/06 09:58:16;;;;;;;6.68;3.80;;;;;;;5.05;79.74;99314.72;4996802;28;20113;-53
2022/04/06 10:00:46;;;;;;;8.60;4.45;;;;;;;5.05;80.24;99317.28;4993380;28;20042;-55
2022/04/06 10:03:18;;;;;;;7.30;3.10;;;;;;;4.96;80.69;99311.38;4990924;28;20054;-59
2022/04/06 10:05:52;;;;;;;4.82;3.38;;;;;;;5.00;80.11;99308.78;4986217;28;20468;-59
2022/04/06 10:08:30;;;;;;;6.35;2.80;;;;;;;5.02;80.74;99301.91;4995988;28;20483;-58
2022/04/06 10:10:59;;;;;;;6.70;3.05;;;;;;;5.01;81.56;99304.50;4985415;28;20420;-60
2022/04/06 10:13:35;;;;;;;6.07;2.72;;;;;;;5.13;82.02;99303.53;4995519;28;20058;-60
2022/04/06 10:16:12;;;;;;;4.50;1.83;;;;;;;5.13;81.42;99298.38;4996646;28;20058;-57
2022/04/06 10:18:45;;;;;;;5.47;2.78;;;;;;;5.11;81.83;99294.97;4984709;28;20125;-57
2022/04/06 10:21:25;;;;;;;6.30;2.28;;;;;;;5.03;82.16;99298.47;4985332;28;20526;-58
2022/04/06 10:24:11;;;;;;;5.07;2.00;;;;;;;4.97;82.31;99301.09;4994967;28;20046;-56
2022/04/06 10:26:52;;;;;;;5.90;2.90;;;;;;;4.97;83.29;99298.53;4995365;28;20042;-57
2022/04/06 10:29:21;;;;;;;4.95;2.60;;;;;;;4.97;83.46;99293.41;4987506;28;20050;-55
2022/04/06 10:31:57;;;;;;;5.43;2.70;;;;;;;4.94;83.96;99297.72;4989667;28;20391;-61
2022/04/06 10:34:30;;;;;;;4.82;2.70;;;;;;;4.95;84.21;99292.56;4993318;28;20089;-60
2022/04/06 10:37:18;;;;;;;5.50;2.53;;;;;;;4.84;83.51;99291.81;4992309;28;20080;-62
2022/04/06 10:40:03;;;;;;;5.30;2.60;;;;;;;4.90;84.63;99267.78;4985765;28;20055;-60
2022/04/06 10:42:35;;;;;;;5.25;2.08;;;;;;;4.84;83.70;99266.13;4994389;28;20046;-60
2022/04/06 10:45:37;;;;;;;5.00;2.88;;;;;;;4.86;85.03;99259.25;4988277;28;20124;-60
2022/04/06 10:51:33;;;;;;;6.20;3.72;;;;;;;4.74;84.64;99256.81;4995234;28;20058;-59
2022/04/06 10:54:44;;;;;;;5.97;3.50;;;;;;;4.79;85.91;99242.22;4995790;28;20053;-60
2022/04/06 10:57:12;;;;;;;5.88;3.22;;;;;;;4.67;86.17;99232.88;4995049;28;20081;-58
2022/04/06 10:59:41;;;;;;;7.25;3.42;;;;;;;4.66;86.49;99240.59;4992262;28;20057;-59
2022/04/06 11:02:25;;;;;;;6.32;3.80;;;;;;;4.61;86.45;99243.19;4992967;28;20124;-59
2022/04/06 11:04:56;;;;;;;6.25;3.63;;;;;;;4.63;86.59;99235.47;4994502;28;20050;-58
2022/04/06 11:10:38;;;;;;;8.93;4.05;;;;;;;4.57;86.10;99238.94;4980176;28;20054;-56
2022/04/06 11:13:12;;;;;;;11.40;5.10;;;;;;;4.54;86.32;99235.56;4979637;28;20054;-55
2022/04/06 11:15:41;;;;;;;8.25;5.30;;;;;;;4.55;87.13;99227.84;4991767;28;20125;-55
2022/04/06 11:18:43;;;;;;;7.72;5.00;;;;;;;4.58;87.33;99226.97;4995490;28;20097;-58
2022/04/06 11:21:15;;;;;;;9.10;5.43;;;;;;;4.47;86.73;99229.63;4974875;28;20061;-61
2022/04/06 11:23:52;;;;;;;9.82;5.93;;;;;;;4.58;87.54;99232.09;4995010;28;20080;-66
2022/04/06 11:26:41;;;;;;;10.48;5.75;;;;;;;4.68;88.08;99229.47;4995522;28;20141;-66
2022/04/06 11:29:12;;;;;;;9.02;5.40;;;;;;;4.71;87.62;99218.31;4980157;28;20058;-66
2022/04/06 11:32:23;;;;;;;10.05;5.60;;;;;;;4.65;87.87;99224.34;4995278;28;20064;-65
2022/04/06 11:34:53;;;;;;;8.30;5.43;;;;;;;4.60;88.64;99220.09;4986728;28;20049;-59
2022/04/06 11:37:24;;;;;;;9.23;5.38;;;;;;;4.63;88.38;99209.81;4994806;28;20046;-59
2022/04/06 11:40:00;;;;;;;7.32;4.45;;;;;;;4.54;88.95;99184.22;4994633;28;20116;-58
2022/04/06 11:42:30;;;;;;;8.93;5.03;;;;;;;4.61;89.90;99201.28;4994698;28;20053;-59
2022/04/06 11:44:58;;;;;;;8.38;4.97;;;;;;;4.63;89.48;99199.53;4987026;28;20053;-62
2022/04/06 11:47:36;;;;;;;7.97;4.47;;;;;;;4.63;89.85;99195.25;4994701;28;20073;-63
2022/04/06 11:50:07;;;;;;;10.18;5.35;;;;;;;4.63;90.64;99189.28;4993944;28;20058;-60
2022/04/06 11:52:40;;;;;;;7.65;4.97;;;;;;;4.66;90.48;99181.56;4992381;28;20132;-59
2022/04/06 11:55:10;;;;;;;13.95;6.68;;;;;;;4.73;90.99;99191.78;4979196;28;20133;-60
2022/04/06 11:57:42;;;;;;;9.57;5.55;;;;;;;4.75;90.85;99179.78;4994827;28;20042;-61
2022/04/06 12:00:15;;;;;;;10.80;6.10;;;;;;;4.84;91.32;99171.13;4988515;28;20062;-59
2022/04/06 12:02:51;;;;;;;12.52;6.40;;;;;;;4.84;91.18;99173.69;4994096;28;20061;-60
2022/04/06 12:05:20;;;;;;;;;;;;;;;4.82;91.31;99175.44;4994815;28;20056;-63
2022/04/06 12:07:49;;;;;;;10.63;6.60;;;;;;;4.96;91.69;99163.28;4989599;28;19926;-61
2022/04/06 12:10:19;;;;;;;13.75;6.70;;;;;;;5.04;91.51;99173.47;4994101;28;20046;-61
2022/04/06 12:12:50;;;;;;;8.27;5.55;;;;;;;5.12;90.82;99145.13;4993836;28;20101;-61
2022/04/06 12:15:20;;;;;;;10.90;5.70;;;;;;;5.11;90.50;99149.44;4992546;28;20073;-60
2022/04/06 12:17:50;;;;;;;9.15;5.80;;;;;;;5.22;90.97;99145.03;4988887;28;20451;-60
2022/04/06 12:20:33;;;;;;;10.57;5.78;;;;;;;5.30;91.11;99147.50;4994465;28;20451;-60
2022/04/06 12:23:11;;;;;;;10.38;5.50;;;;;;;5.44;90.09;99129.34;4994139;28;20050;-61
2022/04/06 12:25:40;;;;;;;10.70;6.45;;;;;;;5.50;89.42;99129.25;4994377;28;20431;-54
2022/04/06 12:28:27;;;;;;;12.43;6.20;;;;;;;5.59;89.25;99130.00;4994085;28;20341;-62
2022/04/06 12:30:58;;;;;;;12.20;6.90;;;;;;;5.62;89.36;99129.94;4993541;28;20097;-63
2022/04/06 12:33:41;;;;;;;10.82;6.63;;;;;;;5.71;88.75;99114.38;4987899;28;20054;-59
2022/04/06 12:36:23;;;;;;;13.23;6.93;;;;;;;5.89;88.25;99112.44;4986344;28;20575;-60